Time;durP1;ratioP1;P1;durP2;ratioP2;P2;SDS_P1;SDS_P2;PMS_P1;PMS_P2;Temp;Humidity;BMP_temperature;BMP_pressure;BME280_temperature;BME280_humidity;BME280_pressure;Samples;Min_cycle;Max_cycle;Signal;HPM_P1;HPM_P2
2023/11/14 00:02:09;;;;;;;5.47;2.10;;;;;6.50;96146.00;;;;5068360;28;20212;-84
2023/11/14 00:04:58;;;;;;;5.90;2.13;;;;;6.60;96144.00;;;;5066140;28;20219;-83
2023/11/14 00:07:47;;;;;;;11.97;4.07;;;;;6.90;96144.00;;;;5070914;28;20219;-84
2023/11/14 00:10:36;;;;;;;5.97;2.33;;;;;6.90;96161.00;;;;5073655;28;20220;-83
2023/11/14 00:13:27;;;;;;;7.30;2.67;;;;;6.40;96154.00;;;;5074032;28;20223;-85
2023/11/14 00:16:16;;;;;;;6.63;2.47;;;;;6.80;96145.00;;;;5072091;28;20212;-83
2023/11/14 00:19:05;;;;;;;6.03;2.20;;;;;7.00;96145.00;;;;5065871;28;20210;-84
2023/11/14 00:21:55;;;;;;;5.70;2.10;;;;;7.10;96151.00;;;;5066318;28;20196;-85
2023/11/14 00:24:44;;;;;;;6.47;2.37;;;;;6.90;96148.00;;;;5072600;28;20196;-83
2023/11/14 00:27:33;;;;;;;9.77;3.73;;;;;7.10;96144.00;;;;5071104;28;20218;-83
2023/11/14 00:30:24;;;;;;;6.63;2.47;;;;;7.10;96136.00;;;;5070673;28;20242;-84
2023/11/14 00:33:13;;;;;;;5.07;2.00;;;;;6.60;96128.00;;;;5065840;28;20219;-84
2023/11/14 00:36:02;;;;;;;3.43;1.33;;;;;7.00;96149.00;;;;5063793;28;20200;-84
2023/11/14 00:38:52;;;;;;;3.40;1.50;;;;;7.20;96158.00;;;;5072835;28;20207;-84
2023/11/14 00:41:41;;;;;;;6.63;2.60;;;;;6.80;96128.00;;;;5066867;28;20219;-84
2023/11/14 00:44:30;;;;;;;7.47;2.77;;;;;6.40;96125.00;;;;5070030;28;20199;-85
2023/11/14 00:47:20;;;;;;;6.33;2.33;;;;;5.40;96112.00;;;;5070787;28;20212;-82
2023/11/14 00:50:10;;;;;;;3.07;1.30;;;;;5.90;96132.00;;;;5065968;28;20719;-84
2023/11/14 00:52:59;;;;;;;6.40;2.40;;;;;6.10;96143.00;;;;5068796;28;20222;-83
2023/11/14 00:55:49;;;;;;;8.37;3.07;;;;;6.30;96146.00;;;;5069331;28;20200;-84
2023/11/14 00:58:39;;;;;;;5.50;2.20;;;;;6.60;96148.00;;;;5072390;28;20714;-84
2023/11/14 01:01:28;;;;;;;8.20;3.17;;;;;6.60;96139.00;;;;5074177;28;20302;-83
2023/11/14 01:04:20;;;;;;;8.13;3.07;;;;;6.60;96121.00;;;;5066409;28;20214;-84
2023/11/14 01:07:10;;;;;;;4.47;1.67;;;;;6.40;96135.00;;;;5068812;28;20225;-82
2023/11/14 01:09:59;;;;;;;4.60;1.80;;;;;6.60;96132.00;;;;5070588;28;20231;-83
2023/11/14 01:12:48;;;;;;;6.93;2.73;;;;;6.70;96126.00;;;;5072552;28;20204;-85
2023/11/14 01:15:37;;;;;;;3.80;1.57;;;;;6.30;96128.00;;;;5072071;28;20673;-84
2023/11/14 01:18:27;;;;;;;8.83;3.43;;;;;6.60;96132.00;;;;5072551;28;20572;-84
2023/11/14 01:21:18;;;;;;;5.13;2.17;;;;;6.60;96133.00;;;;5061199;28;20230;-85
2023/11/14 01:24:08;;;;;;;5.37;2.13;;;;;6.00;96135.00;;;;5067406;28;20188;-84
2023/11/14 01:26:58;;;;;;;4.90;1.90;;;;;6.10;96143.00;;;;5069686;28;20196;-85
2023/11/14 01:29:47;;;;;;;6.57;2.50;;;;;5.90;96136.00;;;;5071627;28;20226;-84
2023/11/14 01:32:36;;;;;;;6.10;2.43;;;;;6.40;96137.00;;;;5068272;28;20210;-84
2023/11/14 01:35:25;;;;;;;9.33;3.40;;;;;6.20;96126.00;;;;5067923;28;20215;-83
2023/11/14 01:38:16;;;;;;;4.03;1.73;;;;;6.10;96124.00;;;;5070706;28;20742;-84
2023/11/14 01:41:05;;;;;;;5.73;2.13;;;;;6.50;96118.00;;;;5066349;28;20212;-84
2023/11/14 01:43:54;;;;;;;6.40;2.53;;;;;6.30;96118.00;;;;5064460;28;20204;-83
2023/11/14 01:46:44;;;;;;;3.87;1.53;;;;;5.60;96104.00;;;;5068260;28;20201;-83
2023/11/14 01:49:33;;;;;;;10.73;4.03;;;;;6.40;96104.00;;;;5066820;28;20265;-82
2023/11/14 01:52:22;;;;;;;6.37;2.40;;;;;6.70;96086.00;;;;5067856;28;20208;-82
2023/11/14 01:55:13;;;;;;;3.30;1.43;;;;;6.80;96089.00;;;;5066779;28;20242;-82
2023/11/14 01:58:02;;;;;;;6.23;2.30;;;;;6.10;96094.00;;;;5070186;28;20192;-84
2023/11/14 02:00:52;;;;;;;4.67;1.90;;;;;6.10;96100.00;;;;5068232;28;20676;-83
2023/11/14 02:03:41;;;;;;;5.00;1.97;;;;;6.00;96093.00;;;;5065639;28;20188;-84
2023/11/14 02:06:30;;;;;;;8.63;3.33;;;;;5.70;96089.00;;;;5063875;28;20204;-82
2023/11/14 02:09:20;;;;;;;8.17;3.10;;;;;6.00;96079.00;;;;5066461;28;20204;-81
2023/11/14 02:12:11;;;;;;;3.13;1.40;;;;;6.40;96093.00;;;;5068758;28;20219;-83
2023/11/14 02:15:04;;;;;;;8.20;3.03;;;;;6.60;96098.00;;;;5061751;28;20227;-84
2023/11/14 02:17:53;;;;;;;4.80;1.97;;;;;6.20;96082.00;;;;5067095;28;20602;-84
2023/11/14 02:20:42;;;;;;;4.67;1.87;;;;;6.60;96090.00;;;;5067752;28;20590;-84
2023/11/14 02:23:37;;;;;;;8.47;3.27;;;;;6.60;96071.00;;;;5064107;28;20200;-85
2023/11/14 02:26:27;;;;;;;8.63;3.40;;;;;6.10;96089.00;;;;5069339;28;20207;-85
2023/11/14 02:29:17;;;;;;;5.40;2.20;;;;;6.30;96086.00;;;;5060860;28;20212;-82
2023/11/14 02:32:07;;;;;;;5.63;2.20;;;;;5.90;96083.00;;;;5065958;28;20202;-85
2023/11/14 02:34:56;;;;;;;6.27;2.40;;;;;5.70;96073.00;;;;5065832;28;20216;-86
2023/11/14 02:37:46;;;;;;;10.50;3.73;;;;;6.20;96088.00;;;;5069053;28;20195;-83
2023/11/14 02:40:35;;;;;;;9.23;3.70;;;;;6.30;96090.00;;;;5072957;28;20204;-81
2023/11/14 02:43:25;;;;;;;10.87;4.20;;;;;6.40;96078.00;;;;5090785;28;20207;-83
2023/11/14 02:46:14;;;;;;;4.93;1.97;;;;;6.30;96083.00;;;;5084071;28;20207;-87
2023/11/14 02:49:35;;;;;;;6.20;2.23;;;;;6.00;96093.00;;;;5069230;28;20421;-87
2023/11/14 02:52:24;;;;;;;8.73;3.27;;;;;5.30;96082.00;;;;5059777;28;20223;-87
2023/11/14 02:55:13;;;;;;;5.50;2.20;;;;;5.80;96078.00;;;;5069088;28;20227;-85
2023/11/14 02:58:02;;;;;;;6.63;2.50;;;;;6.00;96069.00;;;;5066242;28;20245;-86
2023/11/14 03:00:52;;;;;;;5.53;2.17;;;;;5.80;96076.00;;;;5073497;28;20226;-87
2023/11/14 03:03:46;;;;;;;4.00;1.63;;;;;5.40;96091.00;;;;5074101;28;20201;-88
2023/11/14 03:06:38;;;;;;;7.13;2.93;;;;;5.30;96086.00;;;;5069395;28;20322;-84
2023/11/14 03:09:27;;;;;;;14.57;5.20;;;;;5.60;96072.00;;;;5070635;28;20215;-87
2023/11/14 03:12:17;;;;;;;5.73;2.30;;;;;5.50;96079.00;;;;5070812;28;20582;-86
2023/11/14 03:15:07;;;;;;;4.97;1.97;;;;;6.10;96061.00;;;;5067087;28;20597;-87
2023/11/14 03:17:58;;;;;;;2.40;1.13;;;;;6.00;96078.00;;;;5063771;28;20611;-86
2023/11/14 03:20:47;;;;;;;5.23;2.03;;;;;5.50;96088.00;;;;5070100;28;20233;-87
2023/11/14 03:23:36;;;;;;;4.83;1.90;;;;;5.90;96082.00;;;;5070815;28;20692;-86
2023/11/14 03:26:31;;;;;;;8.13;3.13;;;;;6.20;96097.00;;;;5070497;28;20207;-86
2023/11/14 03:29:20;;;;;;;10.27;3.80;;;;;6.50;96111.00;;;;5066891;28;20210;-85
2023/11/14 03:32:09;;;;;;;5.30;2.10;;;;;6.30;96096.00;;;;5066033;28;20215;-86
2023/11/14 03:35:00;;;;;;;5.83;2.23;;;;;6.20;96086.00;;;;5074069;28;20705;-85
2023/11/14 03:37:49;;;;;;;9.97;3.67;;;;;6.60;96092.00;;;;5074965;28;20204;-86
2023/11/14 03:40:38;;;;;;;5.03;2.07;;;;;6.60;96102.00;;;;5073504;28;20216;-85
2023/11/14 03:43:27;;;;;;;6.43;2.50;;;;;6.20;96113.00;;;;5074377;28;20218;-85
2023/11/14 03:46:16;;;;;;;3.67;1.57;;;;;6.00;96122.00;;;;5063526;28;20665;-87
2023/11/14 03:49:05;;;;;;;4.40;1.77;;;;;5.90;96143.00;;;;5072087;28;20203;-85
2023/11/14 03:51:56;;;;;;;4.47;1.87;;;;;6.00;96109.00;;;;5067012;28;20200;-86
2023/11/14 03:54:46;;;;;;;4.40;1.77;;;;;6.20;96110.00;;;;5072575;28;20226;-83
2023/11/14 03:57:35;;;;;;;9.07;3.53;;;;;5.80;96112.00;;;;5072124;28;20863;-85
2023/11/14 04:00:24;;;;;;;8.40;3.23;;;;;5.60;96095.00;;;;5073229;28;20238;-87
2023/11/14 04:03:13;;;;;;;4.80;2.07;;;;;5.80;96120.00;;;;5073060;28;20212;-87
2023/11/14 04:06:03;;;;;;;3.67;1.47;;;;;6.20;96112.00;;;;5076457;28;20195;-85
2023/11/14 04:08:54;;;;;;;6.23;2.37;;;;;6.70;96119.00;;;;5074691;28;20196;-84
2023/11/14 04:11:47;;;;;;;5.07;2.03;;;;;6.80;96118.00;;;;5071787;28;20208;-86
2023/11/14 04:14:36;;;;;;;10.57;4.13;;;;;6.10;96108.00;;;;5073925;28;20239;-85
2023/11/14 04:17:25;;;;;;;5.47;2.33;;;;;6.30;96100.00;;;;5062355;28;20208;-87
2023/11/14 04:20:14;;;;;;;4.27;1.63;;;;;6.40;96099.00;;;;5072582;28;20227;-86
2023/11/14 04:23:03;;;;;;;5.70;2.10;;;;;6.50;96072.00;;;;5073534;28;20196;-85
2023/11/14 04:25:54;;;;;;;7.53;2.80;;;;;6.60;96078.00;;;;5072794;28;20583;-84
2023/11/14 04:28:43;;;;;;;5.30;2.00;;;;;6.50;96072.00;;;;5069688;28;20223;-85
2023/11/14 04:31:32;;;;;;;10.93;3.83;;;;;6.20;96078.00;;;;5073028;28;20235;-87
2023/11/14 04:34:22;;;;;;;11.87;3.87;;;;;5.90;96094.00;;;;5063232;28;20227;-85
2023/11/14 04:37:11;;;;;;;6.47;2.30;;;;;6.80;96081.00;;;;5070281;28;20207;-85
2023/11/14 04:40:00;;;;;;;6.07;2.30;;;;;7.10;96074.00;;;;5072495;28;20237;-84
2023/11/14 04:42:50;;;;;;;9.77;3.40;;;;;6.60;96082.00;;;;5071774;28;20205;-85
2023/11/14 04:45:39;;;;;;;4.40;1.77;;;;;7.00;96094.00;;;;5070950;28;20200;-84
2023/11/14 04:48:28;;;;;;;7.97;2.77;;;;;7.10;96102.00;;;;5060657;28;20794;-84
2023/11/14 04:51:18;;;;;;;5.30;1.73;;;;;7.20;96096.00;;;;5070909;28;20223;-84
2023/11/14 04:54:07;;;;;;;5.03;2.07;;;;;7.60;96098.00;;;;5069031;28;20196;-85
2023/11/14 04:56:56;;;;;;;4.83;2.00;;;;;7.60;96098.00;;;;5067309;28;20235;-85
2023/11/14 04:59:47;;;;;;;5.77;2.50;;;;;7.40;96104.00;;;;5070052;28;20227;-86
2023/11/14 05:02:37;;;;;;;8.50;3.67;;;;;7.70;96128.00;;;;5067200;28;20204;-84
2023/11/14 05:05:26;;;;;;;5.13;2.17;;;;;7.40;96124.00;;;;5070790;28;20200;-84
2023/11/14 05:08:15;;;;;;;4.30;1.80;;;;;7.30;96114.00;;;;5069506;28;20704;-85
2023/11/14 05:11:06;;;;;;;4.57;1.93;;;;;7.40;96118.00;;;;5067652;28;20247;-86
2023/11/14 05:13:55;;;;;;;5.93;2.43;;;;;7.40;96095.00;;;;5074262;28;20305;-85
2023/11/14 05:16:46;;;;;;;7.27;3.03;;;;;7.40;96085.00;;;;5067996;28;20228;-84
2023/11/14 05:19:35;;;;;;;10.80;4.33;;;;;7.60;96063.00;;;;5067821;28;20262;-83
2023/11/14 05:22:24;;;;;;;8.10;3.20;;;;;7.10;96064.00;;;;5070947;28;20227;-84
2023/11/14 05:25:13;;;;;;;4.30;1.80;;;;;7.00;96071.00;;;;5070088;28;20692;-86
2023/11/14 05:28:02;;;;;;;4.53;2.07;;;;;7.30;96086.00;;;;5064717;28;20192;-86
2023/11/14 05:30:51;;;;;;;3.10;1.30;;;;;7.20;96104.00;;;;5066585;28;20365;-83
2023/11/14 05:33:41;;;;;;;4.67;1.93;;;;;7.20;96097.00;;;;5064415;28;20209;-83
2023/11/14 05:36:31;;;;;;;9.10;3.67;;;;;7.80;96079.00;;;;5065486;28;20227;-82
2023/11/14 05:39:20;;;;;;;5.27;2.23;;;;;8.00;96065.00;;;;5057121;28;20205;-85
2023/11/14 05:42:09;;;;;;;5.80;2.40;;;;;7.80;96066.00;;;;5066337;28;20211;-84
2023/11/14 05:44:58;;;;;;;5.60;2.30;;;;;7.40;96053.00;;;;5067776;28;20591;-86
2023/11/14 05:47:47;;;;;;;11.17;4.30;;;;;7.40;96061.00;;;;5077183;28;20211;-86
2023/11/14 05:50:37;;;;;;;12.07;4.23;;;;;7.20;96064.00;;;;5073779;28;20227;-85
2023/11/14 05:53:26;;;;;;;10.80;3.57;;;;;7.70;96070.00;;;;5056105;28;20201;-85
2023/11/14 05:56:15;;;;;;;9.20;3.17;;;;;8.10;96060.00;;;;5066931;28;20552;-84
2023/11/14 05:59:07;;;;;;;7.50;2.67;;;;;7.60;96062.00;;;;5070688;28;20664;-83
2023/11/14 06:01:56;;;;;;;6.20;2.30;;;;;7.60;96071.00;;;;5068583;28;20560;-84
2023/11/14 06:04:45;;;;;;;6.90;2.43;;;;;7.50;96068.00;;;;5072941;28;20203;-83
2023/11/14 06:07:38;;;;;;;11.60;4.07;;;;;7.90;96063.00;;;;5054798;28;20211;-85
2023/11/14 06:10:27;;;;;;;6.00;2.13;;;;;8.30;96074.00;;;;5067937;28;20665;-84
2023/11/14 06:13:17;;;;;;;6.47;2.17;;;;;8.40;96075.00;;;;5062655;28;20211;-85
2023/11/14 06:16:07;;;;;;;3.20;1.23;;;;;8.40;96063.00;;;;5065846;28;20220;-83
2023/11/14 06:18:56;;;;;;;6.93;2.50;;;;;8.30;96068.00;;;;5069965;28;20215;-84
2023/11/14 06:21:47;;;;;;;9.90;3.37;;;;;8.30;96093.00;;;;5071567;28;20208;-84
2023/11/14 06:24:39;;;;;;;10.87;3.93;;;;;7.80;96091.00;;;;5068902;28;20246;-85
2023/11/14 06:27:28;;;;;;;11.73;3.90;;;;;8.10;96111.00;;;;5069569;28;20199;-86
2023/11/14 06:30:18;;;;;;;9.60;3.23;;;;;8.70;96113.00;;;;5066795;28;20239;-86
2023/11/14 06:33:07;;;;;;;6.03;2.03;;;;;8.90;96102.00;;;;5066240;28;20211;-84
2023/11/14 06:35:56;;;;;;;7.37;2.70;;;;;8.40;96078.00;;;;5065862;28;20281;-85
2023/11/14 06:38:45;;;;;;;9.90;3.50;;;;;7.80;96072.00;;;;5067099;28;20487;-84
2023/11/14 06:41:36;;;;;;;12.63;4.40;;;;;8.00;96096.00;;;;5065919;28;20249;-83
2023/11/14 06:44:25;;;;;;;11.87;4.00;;;;;8.70;96095.00;;;;5060765;28;20212;-85
2023/11/14 06:47:15;;;;;;;8.03;2.70;;;;;9.10;96094.00;;;;5076531;28;20199;-84
2023/11/14 06:50:05;;;;;;;4.53;1.90;;;;;8.90;96107.00;;;;5059477;28;20235;-83
2023/11/14 06:52:59;;;;;;;5.97;2.20;;;;;8.60;96118.00;;;;5069117;28;20222;-84
2023/11/14 06:55:48;;;;;;;6.90;2.70;;;;;8.50;96117.00;;;;5066399;28;20206;-83
2023/11/14 06:58:40;;;;;;;9.47;3.93;;;;;8.10;96125.00;;;;5080422;28;20180;-80
2023/11/14 07:01:29;;;;;;;10.10;4.00;;;;;8.10;96140.00;;;;5092739;28;20228;-83
2023/11/14 07:04:18;;;;;;;5.80;2.40;;;;;8.50;96175.00;;;;5086712;28;20199;-84
2023/11/14 07:07:08;;;;;;;6.10;2.37;;;;;8.50;96167.00;;;;5072249;28;20610;-85
2023/11/14 07:09:58;;;;;;;6.43;2.60;;;;;8.70;96183.00;;;;5068568;28;20579;-85
2023/11/14 07:12:47;;;;;;;6.87;2.70;;;;;9.10;96186.00;;;;5072109;28;20211;-85
2023/11/14 07:15:38;;;;;;;3.90;1.67;;;;;9.40;96174.00;;;;5069921;28;20200;-85
2023/11/14 07:18:29;;;;;;;8.10;3.13;;;;;9.50;96168.00;;;;5072325;28;20211;-85
2023/11/14 07:21:32;;;;;;;3.40;1.43;;;;;9.60;96161.00;;;;5069364;28;20216;-85
2023/11/14 07:24:22;;;;;;;6.50;2.50;;;;;9.30;96176.00;;;;5066698;28;20579;-84
2023/11/14 07:27:15;;;;;;;4.67;1.97;;;;;9.20;96173.00;;;;5070235;28;20196;-85
2023/11/14 07:30:05;;;;;;;2.93;1.23;;;;;9.50;96189.00;;;;5073232;28;20244;-86
2023/11/14 07:32:56;;;;;;;6.07;2.43;;;;;9.70;96198.00;;;;5073499;28;20210;-86
2023/11/14 07:35:45;;;;;;;4.10;1.67;;;;;9.80;96219.00;;;;5072934;28;20203;-85
2023/11/14 07:38:35;;;;;;;5.50;2.23;;;;;9.40;96238.00;;;;5068866;28;20239;-86
2023/11/14 07:41:25;;;;;;;6.20;2.43;;;;;9.50;96230.00;;;;5069624;28;20235;-85
2023/11/14 07:44:14;;;;;;;5.77;2.30;;;;;9.70;96220.00;;;;5066575;28;20200;-85
2023/11/14 07:47:03;;;;;;;4.20;1.77;;;;;9.70;96213.00;;;;5071879;28;20200;-85
2023/11/14 07:49:54;;;;;;;4.70;1.83;;;;;9.90;96230.00;;;;5073731;28;20223;-84
2023/11/14 07:52:44;;;;;;;8.80;3.27;;;;;10.20;96248.00;;;;5069531;28;20673;-88
2023/11/14 07:55:33;;;;;;;9.50;3.73;;;;;10.00;96248.00;;;;5065845;28;20511;-88
2023/11/14 07:58:25;;;;;;;6.70;2.63;;;;;10.30;96267.00;;;;5069740;28;20684;-86
2023/11/14 08:01:14;;;;;;;3.50;1.47;;;;;10.20;96261.00;;;;5065770;28;20223;-86
2023/11/14 08:04:05;;;;;;;4.17;1.63;;;;;10.80;96285.00;;;;5068865;28;20222;-85
2023/11/14 08:06:56;;;;;;;3.77;1.53;;;;;10.60;96288.00;;;;5071711;28;20196;-87
2023/11/14 08:09:45;;;;;;;5.53;2.13;;;;;10.20;96290.00;;;;5067982;28;20231;-86
2023/11/14 08:12:35;;;;;;;10.40;4.20;;;;;10.40;96283.00;;;;5067285;28;20579;-86
2023/11/14 08:15:25;;;;;;;7.97;3.20;;;;;10.60;96286.00;;;;5069422;28;20216;-84
2023/11/14 08:18:14;;;;;;;5.27;2.00;;;;;10.80;96294.00;;;;5070685;28;20242;-86
2023/11/14 08:21:03;;;;;;;5.33;2.10;;;;;10.90;96312.00;;;;5070391;28;20216;-86
2023/11/14 08:23:53;;;;;;;5.47;2.07;;;;;11.10;96335.00;;;;5073904;28;20205;-86
2023/11/14 08:26:43;;;;;;;4.80;1.93;;;;;11.00;96350.00;;;;5075248;28;20694;-85
2023/11/14 08:29:32;;;;;;;12.00;4.50;;;;;11.60;96373.00;;;;5071810;28;20196;-87
2023/11/14 08:32:21;;;;;;;4.07;1.50;;;;;11.50;96383.00;;;;5066346;28;20208;-85
2023/11/14 08:35:11;;;;;;;3.40;1.53;;;;;11.60;96385.00;;;;5075542;28;20254;-87
2023/11/14 08:38:01;;;;;;;5.60;2.20;;;;;11.90;96401.00;;;;5071433;28;20224;-86
2023/11/14 08:40:55;;;;;;;5.00;2.07;;;;;11.90;96420.00;;;;5070810;28;20227;-85
2023/11/14 08:43:45;;;;;;;4.83;1.93;;;;;12.00;96413.00;;;;5070595;28;20210;-84
2023/11/14 08:46:34;;;;;;;8.63;3.40;;;;;12.50;96404.00;;;;5073182;28;20210;-85
2023/11/14 08:49:24;;;;;;;9.17;3.33;;;;;12.20;96399.00;;;;5076463;28;20207;-84
2023/11/14 08:52:13;;;;;;;5.77;2.20;;;;;13.00;96335.00;;;;5073343;28;20207;-85
2023/11/14 08:55:02;;;;;;;4.53;1.77;;;;;13.40;96313.00;;;;5064776;28;20196;-84
2023/11/14 08:57:52;;;;;;;7.53;2.97;;;;;13.70;96331.00;;;;5069634;28;20223;-84
2023/11/14 09:00:43;;;;;;;9.40;3.43;;;;;14.00;96311.00;;;;5074089;28;21179;-85
2023/11/14 09:03:32;;;;;;;8.87;3.37;;;;;14.00;96325.00;;;;5068977;28;20661;-85
2023/11/14 09:06:24;;;;;;;4.73;1.70;;;;;14.40;96340.00;;;;5074642;28;20203;-85
2023/11/14 09:09:14;;;;;;;6.47;2.13;;;;;14.80;96364.00;;;;5079873;28;20196;-86
2023/11/14 09:12:03;;;;;;;4.10;1.47;;;;;15.10;96343.00;;;;5081467;28;20214;-85
2023/11/14 09:14:53;;;;;;;6.07;2.17;;;;;15.10;96352.00;;;;5081352;28;20196;-87
2023/11/14 09:17:42;;;;;;;9.97;3.43;;;;;15.20;96354.00;;;;5076284;28;20242;-85
2023/11/14 09:20:33;;;;;;;6.17;2.20;;;;;15.20;96353.00;;;;5080609;28;20224;-85
2023/11/14 09:23:22;;;;;;;4.73;1.77;;;;;15.40;96351.00;;;;5076735;28;20203;-85
2023/11/14 09:26:13;;;;;;;7.23;2.67;;;;;15.50;96354.00;;;;5070008;28;20571;-86
2023/11/14 09:29:02;;;;;;;5.43;2.00;;;;;15.70;96343.00;;;;5074216;28;20196;-86
2023/11/14 09:31:53;;;;;;;7.03;2.40;;;;;15.90;96347.00;;;;5076224;28;20222;-86
2023/11/14 09:34:43;;;;;;;6.63;2.50;;;;;16.00;96366.00;;;;5075421;28;20207;-87
2023/11/14 09:37:32;;;;;;;10.90;3.83;;;;;16.00;96367.00;;;;5071027;28;20216;-86
2023/11/14 09:40:22;;;;;;;6.60;2.27;;;;;16.00;96362.00;;;;5070333;28;20227;-86
2023/11/14 09:43:12;;;;;;;5.67;2.00;;;;;16.30;96369.00;;;;5074459;28;20214;-86
2023/11/14 09:46:01;;;;;;;7.40;2.60;;;;;16.20;96363.00;;;;5068405;28;20378;-86
2023/11/14 09:48:52;;;;;;;7.07;2.60;;;;;16.20;96367.00;;;;5065255;28;20207;-87
2023/11/14 09:51:41;;;;;;;9.17;3.33;;;;;16.30;96349.00;;;;5074477;28;20219;-86
2023/11/14 09:54:31;;;;;;;7.13;2.57;;;;;16.10;96351.00;;;;5067133;28;20218;-85
2023/11/14 09:57:20;;;;;;;3.30;1.30;;;;;16.90;96311.00;;;;5075525;28;20219;-87
2023/11/14 10:00:11;;;;;;;8.83;3.23;;;;;17.60;96327.00;;;;5063664;28;20259;-85
2023/11/14 10:03:02;;;;;;;3.60;1.50;;;;;18.10;96318.00;;;;5072939;28;20219;-86
2023/11/14 10:05:52;;;;;;;7.77;2.67;;;;;18.40;96296.00;;;;5070515;28;20613;-86
2023/11/14 10:08:42;;;;;;;9.13;3.23;;;;;18.50;96296.00;;;;5068463;28;20204;-87
2023/11/14 10:11:43;;;;;;;12.93;4.20;;;;;18.40;96290.00;;;;5075944;28;20287;-86
2023/11/14 10:14:45;;;;;;;12.00;4.10;;;;;18.90;96297.00;;;;5056628;28;20208;-87
2023/11/14 10:17:41;;;;;;;12.83;4.27;;;;;18.30;96291.00;;;;5064659;28;20228;-86
2023/11/14 10:20:38;;;;;;;8.27;2.67;;;;;18.80;96284.00;;;;5069549;28;20227;-86
2023/11/14 10:23:34;;;;;;;15.47;4.83;;;;;19.30;96280.00;;;;5066986;28;20200;-86
2023/11/14 10:26:26;;;;;;;11.83;3.67;;;;;19.70;96289.00;;;;5065982;28;20204;-88
2023/11/14 10:29:18;;;;;;;7.47;2.40;;;;;19.80;96289.00;;;;5064042;28;20200;-86
2023/11/14 10:32:14;;;;;;;3.97;1.40;;;;;19.80;96277.00;;;;5065719;28;20204;-86
2023/11/14 10:35:17;;;;;;;8.07;2.53;;;;;20.10;96278.00;;;;5068506;28;20199;-87
2023/11/14 10:38:19;;;;;;;7.87;2.30;;;;;20.10;96260.00;;;;5067131;28;20231;-87
2023/11/14 10:41:10;;;;;;;8.53;2.50;;;;;20.50;96261.00;;;;5064892;28;20227;-86
2023/11/14 10:44:07;;;;;;;8.53;2.47;;;;;20.00;96253.00;;;;5064087;28;20211;-86
2023/11/14 10:46:58;;;;;;;11.90;3.37;;;;;20.80;96258.00;;;;5062569;28;20207;-86
2023/11/14 10:49:47;;;;;;;9.07;2.67;;;;;21.50;96254.00;;;;5067707;28;20249;-86
2023/11/14 10:52:37;;;;;;;19.63;5.67;;;;;22.00;96248.00;;;;5085814;28;20180;-85
2023/11/14 10:55:26;;;;;;;8.43;2.57;;;;;22.70;96262.00;;;;5093223;28;20200;-85
2023/11/14 10:58:18;;;;;;;9.97;3.00;;;;;23.10;96257.00;;;;5064013;28;20223;-86
2023/11/14 11:01:07;;;;;;;11.83;3.63;;;;;22.20;96266.00;;;;5059416;28;20220;-86
2023/11/14 11:03:56;;;;;;;12.07;3.80;;;;;22.30;96284.00;;;;5065332;28;20210;-86
2023/11/14 11:06:46;;;;;;;12.87;3.97;;;;;22.00;96283.00;;;;5075804;28;20205;-87
2023/11/14 11:09:35;;;;;;;32.43;8.73;;;;;21.80;96268.00;;;;5073891;28;20214;-86
2023/11/14 11:12:26;;;;;;;10.33;3.30;;;;;23.50;96257.00;;;;5068079;28;20207;-86
2023/11/14 11:15:17;;;;;;;5.77;2.77;;;;;24.00;96263.00;;;;5066571;28;20744;-86
2023/11/14 11:18:06;;;;;;;16.60;7.27;;;;;23.20;96260.00;;;;5065231;28;20216;-86
2023/11/14 11:21:08;;;;;;;14.03;11.77;;;;;23.40;96254.00;;;;5059255;28;20220;-86
2023/11/14 11:24:10;;;;;;;12.13;6.27;;;;;21.80;96239.00;;;;5072350;28;20200;-86
2023/11/14 11:27:25;;;;;;;12.80;5.43;;;;;22.70;96251.00;;;;5076021;28;20830;-85
2023/11/14 11:30:15;;;;;;;9.60;5.50;;;;;24.80;96241.00;;;;5055299;28;20235;-86
2023/11/14 11:33:32;;;;;;;12.77;9.03;;;;;25.00;96250.00;;;;5069677;28;20194;-86
2023/11/14 11:36:31;;;;;;;23.00;21.03;;;;;25.00;96245.00;;;;5067879;28;20214;-86
2023/11/14 11:39:20;;;;;;;17.80;15.37;;;;;22.60;96222.00;;;;5060227;28;20600;-86
2023/11/14 11:42:12;;;;;;;14.87;12.90;;;;;22.30;96259.00;;;;5066641;28;20209;-86
2023/11/14 11:45:01;;;;;;;20.43;10.50;;;;;22.30;96251.00;;;;5070851;28;20208;-86
2023/11/14 11:47:52;;;;;;;18.90;6.60;;;;;21.00;96233.00;;;;5060641;28;20673;-88
2023/11/14 11:50:43;;;;;;;21.70;6.90;;;;;21.40;96247.00;;;;5069239;28;20333;-87
2023/11/14 11:53:42;;;;;;;26.93;7.87;;;;;21.10;96294.00;;;;5069567;28;20208;-87
2023/11/14 11:56:41;;;;;;;23.47;6.97;;;;;21.70;96296.00;;;;5072528;28;20259;-87
2023/11/14 11:59:30;;;;;;;26.97;7.60;;;;;20.70;96285.00;;;;5073027;28;20215;-86
2023/11/14 12:02:23;;;;;;;10.87;3.37;;;;;20.70;96272.00;;;;5068005;28;20200;-87
2023/11/14 12:05:14;;;;;;;11.03;3.40;;;;;21.30;96245.00;;;;5063295;28;20585;-87
2023/11/14 12:08:04;;;;;;;11.67;3.67;;;;;22.90;96282.00;;;;5061973;28;20192;-87
2023/11/14 12:10:53;;;;;;;11.63;3.60;;;;;22.50;96242.00;;;;5064504;28;20227;-86
2023/11/14 12:13:43;;;;;;;22.83;6.87;;;;;23.40;96244.00;;;;5060281;28;20630;-86
2023/11/14 12:16:35;;;;;;;26.47;7.97;;;;;22.80;96217.00;;;;5061743;28;20200;-87
2023/11/14 12:19:24;;;;;;;17.63;5.83;;;;;22.80;96207.00;;;;5074629;28;20235;-86
2023/11/14 12:22:15;;;;;;;11.63;4.03;;;;;23.80;96213.00;;;;5064957;28;20212;-88
2023/11/14 12:25:04;;;;;;;3.57;1.47;;;;;23.70;96198.00;;;;5076367;28;20205;-88
2023/11/14 12:28:00;;;;;;;13.00;4.47;;;;;24.80;96199.00;;;;5073239;28;20287;-86
2023/11/14 12:30:59;;;;;;;9.57;3.57;;;;;25.40;96180.00;;;;5074937;28;20229;-86
2023/11/14 12:33:50;;;;;;;10.80;5.40;;;;;26.60;96223.00;;;;5064510;28;20205;-87
2023/11/14 12:36:39;;;;;;;24.03;12.57;;;;;26.10;96237.00;;;;5067477;28;20208;-87
2023/11/14 12:39:30;;;;;;;28.83;10.80;;;;;24.90;96239.00;;;;5066629;28;20229;-86
2023/11/14 12:42:23;;;;;;;8.73;3.77;;;;;24.30;96245.00;;;;5070103;28;20210;-86
2023/11/14 12:45:12;;;;;;;10.17;3.87;;;;;23.60;96247.00;;;;5067790;28;20201;-85
2023/11/14 12:48:02;;;;;;;7.83;2.97;;;;;22.80;96237.00;;;;5066982;28;20701;-85
2023/11/14 12:50:52;;;;;;;10.27;3.67;;;;;21.40;96238.00;;;;5068012;28;20225;-87
2023/11/14 12:53:41;;;;;;;16.27;5.53;;;;;20.60;96254.00;;;;5067117;28;20559;-86
2023/11/14 12:56:31;;;;;;;17.83;5.83;;;;;19.80;96237.00;;;;5069565;28;20204;-86
2023/11/14 12:59:21;;;;;;;3.30;1.23;;;;;19.60;96246.00;;;;5071187;28;20224;-86
2023/11/14 13:02:10;;;;;;;8.27;2.80;;;;;20.30;96255.00;;;;5076972;27;20212;-85
2023/11/14 13:04:59;;;;;;;8.53;2.93;;;;;19.10;96223.00;;;;5068928;28;20203;-85
2023/11/14 13:07:49;;;;;;;13.73;4.77;;;;;19.40;96210.00;;;;5073587;28;20222;-86
2023/11/14 13:10:38;;;;;;;18.87;6.23;;;;;19.00;96210.00;;;;5071805;28;20208;-86
2023/11/14 13:13:29;;;;;;;8.33;2.90;;;;;19.00;96200.00;;;;5072143;28;20204;-86
2023/11/14 13:16:18;;;;;;;9.90;3.40;;;;;19.20;96204.00;;;;5067809;28;20204;-85
2023/11/14 13:19:08;;;;;;;9.23;3.13;;;;;19.20;96197.00;;;;5065128;28;20219;-85
2023/11/14 13:21:57;;;;;;;3.43;1.43;;;;;19.30;96207.00;;;;5063682;28;20199;-85
2023/11/14 13:24:46;;;;;;;6.23;2.20;;;;;18.90;96230.00;;;;5064664;28;21208;-86
2023/11/14 13:27:35;;;;;;;20.47;6.60;;;;;18.80;96220.00;;;;5074276;28;20714;-85
2023/11/14 13:30:25;;;;;;;21.17;19.33;;;;;19.00;96210.00;;;;5065871;28;20219;-86
2023/11/14 13:33:15;;;;;;;5.30;2.13;;;;;19.10;96229.00;;;;5070914;28;20211;-86
2023/11/14 13:36:05;;;;;;;8.60;2.90;;;;;19.20;96219.00;;;;5063760;28;20644;-86
2023/11/14 13:38:54;;;;;;;8.83;3.07;;;;;18.90;96221.00;;;;5064771;28;20209;-87
2023/11/14 13:41:43;;;;;;;22.97;18.43;;;;;18.50;96229.00;;;;5069573;28;20223;-86
2023/11/14 13:44:33;;;;;;;16.50;5.57;;;;;18.50;96221.00;;;;5062606;28;20200;-86
2023/11/14 13:47:24;;;;;;;7.93;2.67;;;;;18.70;96218.00;;;;5068710;28;20207;-85
2023/11/14 13:50:14;;;;;;;8.77;3.07;;;;;18.40;96219.00;;;;5061975;28;20253;-87
2023/11/14 13:53:04;;;;;;;7.30;2.53;;;;;18.50;96214.00;;;;5066997;28;20196;-86
2023/11/14 13:55:53;;;;;;;11.63;3.97;;;;;18.80;96200.00;;;;5070732;28;20204;-86
2023/11/14 13:58:44;;;;;;;10.13;3.43;;;;;18.80;96210.00;;;;5067996;28;20588;-86
2023/11/14 14:01:34;;;;;;;11.03;3.90;;;;;18.80;96207.00;;;;5065684;28;20242;-88
2023/11/14 14:04:24;;;;;;;6.73;2.37;;;;;18.90;96212.00;;;;5061087;28;20253;-86
2023/11/14 14:07:13;;;;;;;6.00;2.17;;;;;19.00;96218.00;;;;5067882;28;20471;-86
2023/11/14 14:10:03;;;;;;;5.07;1.90;;;;;18.70;96188.00;;;;5069324;28;20227;-86
2023/11/14 14:12:53;;;;;;;9.97;3.57;;;;;18.60;96190.00;;;;5064619;28;20204;-86
2023/11/14 14:15:43;;;;;;;13.43;4.80;;;;;18.80;96190.00;;;;5068418;28;20233;-85
2023/11/14 14:18:33;;;;;;;7.77;2.80;;;;;18.90;96200.00;;;;5067669;28;20208;-85